football Recruit Ticker

Follow the latest commitments from around the country. Updated live, only on Rivals.com. Page automatically refreshes every minute.
All times EST
Committed Name Pos School Height Weight 40 Stars Rating Videos
04/28/2015 TaDarryl Marshall ATH Tennessee 71 175 4.52 3 5.70
04/27/2015 Austin Anderson OT Texas A&M 76 290 3 5.60
04/27/2015 Noah Davis TE Michigan State 77 235 3 5.60
04/27/2015 Jack Abraham PRO Tulane 73 210 3 5.50
04/27/2015 Riley Anderson OT Texas A&M 77 280 3 5.60
04/26/2015 Ryan Parker WR Oklahoma 74 175 Videos
04/26/2015 Micah Wilson PRO Boise State 75 200 4.63 Videos
04/26/2015 Braylon Royal WR Kansas 72 175
04/26/2015 Charles Oliver S Texas A&M 74 185 2 5.40
04/25/2015 Brodarious Hamm OT Tennessee 77 315 3 5.70
04/25/2015 Jay Jay McCargo OT North Carolina 76 270 3 5.70
04/25/2015 Robert Washington RB Syracuse 70 215 4.47 4 5.80 Videos
04/25/2015 Justin Layne WR Michigan State 74 181 4 5.80 Videos
04/25/2015 Joe Bachie OLB Michigan State 74 215 2 5.40
04/24/2015 Abdul Adams RB Michigan State 72 185 3 5.60 Videos
04/24/2015 Jordan Parker CB UCLA 71 184 4 5.80 Videos
04/24/2015 Chris Miller S Baylor 72 184
04/23/2015 Austin Johnson K Louisville 74 190
04/23/2015 Robbie Bell OG Louisville 77 265
04/23/2015 David Beasley S Louisiana Tech 73 187 4.52 3 5.50
04/23/2015 Nick Grant ATH Virginia 74 180
04/23/2015 Natereace Strong APB Missouri 72 202
04/23/2015 Greg Taylor S Missouri 70 181
04/23/2015 David Moore DUAL Southern Methodist 74 178 4.50 3 5.50 Videos
04/23/2015 Tre Threat ILB Auburn 73 230 4 5.80 Videos
04/22/2015 Javonte Ferguson WR Oregon State 68 160 2 5.30
04/22/2015 Anthony Thompson DUAL Northern Illinois 72 195
04/22/2015 Messiah deWeaver PRO Michigan State 75 200 4 5.80 Videos
04/22/2015 Joey Fisher SDE Maryland 76 253 2 5.40
04/22/2015 Chris Owens OG Alabama 76 315 3 5.70 Videos
04/22/2015 Mason Stokke OLB Wisconsin 75 205
04/21/2015 Peyton Ramsey PRO Indiana 75 190 2 5.40
04/21/2015 Sadiq Palmer WR Syracuse 75 185 2 5.40
04/21/2015 Jeremiah Brown WR Wake Forest 74 173 3 5.50
04/20/2015 Aaron Manning RB Northern Arizona 68 174
04/20/2015 Ernest Kenty S Charlotte 74 184
04/20/2015 Gunnar Hoak PRO Kentucky 75 190 3 5.50
04/19/2015 Deuce Wallace PRO Vanderbilt 73 203 3 5.60 Videos
04/19/2015 Rodarius Williams CB Oklahoma State 71 165 3 5.50 Videos
04/19/2015 Nik Urban OG Northwestern 76 280 3 5.60
04/19/2015 Mekhi Stevenson WR San Jose State 72 180 2 5.40
04/19/2015 Tyrell Alexander ATH Oklahoma State 73 169 3 5.70 Videos
04/19/2015 Liam Eichenberg OT Notre Dame 77 284 3 5.70 Videos
04/19/2015 Malik Barrow SDE Ohio State 74 270 4.90 4 5.90
04/19/2015 Trystan Castillo OG Missouri 76 280 4.96 Videos
04/18/2015 Ladarrius Thomas RB Louisiana Tech 74 213 2 5.40 Videos
04/18/2015 Zechariah McPhearson CB Penn State 72 185 3 5.50
04/18/2015 Blake Walls ILB San Jose State 71 235 3 5.60
04/18/2015 Amir Watts DT Western Michigan 75 260
04/18/2015 Edwin Alexander DT LSU 75 328 4 6.00 Videos
04/18/2015 Reid Herring PRO East Carolina 75 172 3 5.50 Videos
04/18/2015 Shurod Thompson S California 73 185 4 5.90 Videos
04/18/2015 Cole Kelley PRO Arkansas 79 235 3 5.50 Videos
04/18/2015 Patrick Rosette S Houston 73 195 2 5.40 Videos
04/18/2015 Jack Wohlabaugh OG Ohio State 76 274 Videos
04/18/2015 Lorenzo Dantzler WDE Louisiana Tech 74 240 4.73 2 5.30
04/18/2015 Russell Halimon APB Arizona 69 180 Videos
04/17/2015 Ronald Cherry DT Tulane 73 282 5.80 2 5.30
04/17/2015 Jonathan Ward RB Central Michigan 72 175 4.45
04/17/2015 Tuf Borland OLB Ohio State 73 215 4 5.80 Videos
04/17/2015 Brendan Scales TE Alabama 76 220 4.78 3 5.50 Videos
04/17/2015 Darian Owens WR UCLA 72 192 4 5.90 Videos
04/17/2015 Melquise Stovall RB USC 68 180 4 5.80 Videos
04/17/2015 Nick Starkel PRO Oklahoma State 75 185 3 5.60 Videos
04/16/2015 Amani Jones ILB Illinois 72 215 3 5.50 Videos
04/16/2015 Frank Martin OT USC 78 300 4 5.90 Videos
04/15/2015 D'Andre Dill DT Temple 75 295
04/15/2015 Luke Wattenberg OT Washington 77 265 5.10 4 5.80
04/15/2015 D'Wayne Eskridge RB Western Michigan 70 190
04/15/2015 Devon Modster PRO Arizona 73 213 4 5.80 Videos
04/15/2015 Taleni Suhren OT Wake Forest 76 270 3 5.60 Videos
04/15/2015 Jarrett Guarantano DUAL Tennessee 76 188 4 5.90 Videos
04/15/2015 Tristen Wallace ATH Ohio State 75 220 3 5.70 Videos
04/15/2015 Nathan Smith OT USC 79 276 4 5.90 Videos
04/14/2015 Donnell Greene OT San Diego State 78 330
04/14/2015 Julian Okwara OLB Notre Dame 76 220 4 5.80 Videos
04/14/2015 Giovanni Pancotti OT Texas Tech 78 290 3 5.60 Videos
04/13/2015 Tyler Pritchett OG North Carolina 74 288 3 5.50
04/13/2015 Liam Smith OT Duke 77 266 3 5.50 Videos
04/13/2015 Darian Bryant OT Temple 78 325 3 5.50
04/13/2015 Curtis Robinson ATH Stanford 75 215 4 5.80 Videos
04/13/2015 J.P. Urquidez OT Baylor 78 293 4 5.80 Videos
04/13/2015 Ben LeRoy DT Northern Illinois 74 250
04/12/2015 Tre Harbison RB Virginia 71 210 4.59 3 5.70 Videos
04/12/2015 Robert Kraeling OT Duke 80 250 4.93 3 5.70 Videos
04/12/2015 Sean Foster OT Minnesota 80 285 4 5.80 Videos
04/11/2015 Derrick Clark RB California 71 195 3 5.60 Videos
04/11/2015 Sam Schlueter OT Minnesota 78 272 3 5.60 Videos
04/11/2015 Chris Barnes OT Georgia 75 274 3 5.50 Videos
04/11/2015 Briston Guidry DT Arkansas 75 275 4 5.90 Videos
04/11/2015 T.J. Hammonds ATH Arkansas 71 196 4.42 3 5.50 Videos
04/11/2015 Brian Bullock CB Northwestern 70 186 3 5.50 Videos
04/10/2015 Luke Benzschawel SDE Wisconsin 79 220
04/10/2015 Jack Clancy ILB Navy 73 220 2 5.40
04/08/2015 Logan Byrd DUAL North Carolina 75 232 4 5.80 Videos
04/08/2015 Emoree Giddens OT Texas Tech 77 265 2 5.40 Videos
04/08/2015 Matt Falcon RB Michigan 73 210 4 5.80 Videos
04/08/2015 Shemar Smith OLB Florida Atlantic 74 200 2 5.40
04/07/2015 Daniel Juarez OT California 77 292 3 5.50 Videos
04/07/2015 Austin Kendall PRO Oklahoma 74 210 4 6.00 Videos
04/06/2015 Tyler Brown DUAL Louisiana-Lafayette 75 195 2 5.40
04/06/2015 Cam DeGeorge OT Syracuse 77 262 3 5.50
04/06/2015 Derrion Grim ATH Boise State 71 191 2 5.40 Videos
04/06/2015 Kingston Davis RB Michigan 72 242 3 5.60 Videos
04/04/2015 Travon Stott CB Maryland 72 175 3 5.50
04/04/2015 Jonah Williams OT Alabama 77 280 4 5.90 Videos
04/04/2015 David Reese ILB Michigan 73 226 3 5.70 Videos
04/03/2015 Brandon Peters PRO Michigan 76 195 4 5.80 Videos
04/03/2015 Malek Young CB Georgia 69 173 3 5.70 Videos
04/03/2015 Levonta Taylor CB Florida State 70 180 4.40 5 6.10 Videos
04/03/2015 Butch Hampton K Western Michigan 73 170 2 5.30
04/03/2015 Trey Sneed ATH Rutgers 70 192 3 5.60 Videos
04/03/2015 Troy Warner CB Oregon 74 185 3 5.70
04/02/2015 Jacob Capra OG Oregon 77 265 3 5.60 Videos
04/02/2015 E.J. Price OT Georgia 78 317 4 6.00 Videos
04/02/2015 Brian Plummer OT Maryland 79 300 2 5.40 Videos
04/01/2015 Simeon Smiley S South Alabama 72 195 3 5.60
04/01/2015 Zack Moss RB Miami (FL) 69 203 3 5.60 Videos
03/31/2015 Joshuwa Eldridge SDE Central Michigan 76 250 4.90
03/31/2015 Phillip Howard ATH Minnesota 71 175 4.49 Videos
03/31/2015 Will Davis DT Florida Atlantic 72 249 3 5.50
03/31/2015 Antonio Hadden WR Florida Atlantic 74 200 2 5.40
03/31/2015 Spencer Williams OG Western Michigan 75 275 2 5.40
03/30/2015 Devin Hamilton OLB Louisiana Tech 73 215
03/30/2015 Tyler Huntley DUAL Florida Atlantic 73 177 3 5.60
03/30/2015 Marshal Nathe OG Arizona State 75 292 3 5.50
03/30/2015 Corey Henderson ATH Tennessee 73 170 4.41 3 5.50 Videos
03/30/2015 Dareuan Parker OT Mississippi State 77 320 3 5.50 Videos
03/30/2015 Neru N'Shaka WR Virginia 70 180 3 5.50 Videos
03/30/2015 Solofa Funa ILB Brigham Young 73 216 Videos
03/29/2015 Charles Wiley WDE Mississippi 74 240 4 5.80 Videos
03/29/2015 Austin Cummins TE Louisville 78 220 2 5.40 Videos
03/28/2015 Bryan Edwards WR South Carolina 75 205 4 5.80 Videos
03/28/2015 Billy Kisner PRO Toledo 70 156 2 5.30
03/28/2015 Ronnie Jones RB Toledo 73 185 2 5.30
03/28/2015 Thomas Jarrett Hopple OT Virginia Tech 78 270 3 5.50 Videos
03/28/2015 Kordell Looney DT Kentucky 75 286 3 5.50 Videos
03/28/2015 DeMario McCall ATH Ohio State 71 180 4 6.00 Videos
03/28/2015 C.J. Freeman APB South Carolina 71 195 3 5.70 Videos
03/28/2015 Landan Word OLB Virginia 75 230 2 5.30 Videos
03/27/2015 Nate Swart TE Toledo 77 225 2 5.30
03/27/2015 Tristian Pipp OLB Western Michigan 73 200 4.65 3 5.60
03/27/2015 Michael Clark OT Maryland 79 277 2 5.40
03/27/2015 Braeden Kent DUAL Texas State 75 185 4.62 2 5.40
03/27/2015 Marquis Bates WR Texas State 77 205 4.47
03/27/2015 Devin Williams DUAL Texas State 69 164 2 5.40
03/27/2015 Tyrek Tisdale RB Florida 72 198 4.80 3 5.60 Videos
03/26/2015 Rahshaun Smith OLB Clemson 74 226 4.50 5 6.10 Videos
03/25/2015 Josh Metellus S Georgia Southern 72 187
03/25/2015 Malick Mbodj WR UCF 76 185 3 5.50 Videos
03/25/2015 Clay Dean DT Virginia Tech 75 240 2 5.40 Videos
03/25/2015 Bryce Morais SDE Boston College 77 250 3 5.60 Videos
03/24/2015 Alec Simpson ILB Nevada 75 205 3 5.50
03/23/2015 Lokeni Toailoa ILB UCLA 72 213 4 6.00 Videos
03/23/2015 Demetric Felton ATH UCLA 70 170 3 5.70 Videos
03/23/2015 Leni Toailoa ATH San Jose State 73 160 2 5.40
03/23/2015 Sean Riley RB Arizona 69 165 3 5.50 Videos
03/23/2015 Devon Clarke S Oregon State 75 190 3 5.50
03/23/2015 Brandon Barlow WDE Boston College 78 225 2 5.30 Videos
03/22/2015 Brandon Hill OLB Duke 75 213 3 5.60 Videos
03/22/2015 Tony Jones RB Notre Dame 73 212 3 5.60 Videos
03/22/2015 Brandon Ford OT Pittsburgh 78 285 2 5.40 Videos
03/21/2015 Joe Thompson PRO Charlotte 72 203 2 5.40
03/21/2015 John Shannon C Notre Dame 74 235 2 5.20
03/21/2015 Julian Love CB Notre Dame 71 175 3 5.70 Videos
03/21/2015 Stori Emerson WR Miami (OH) 74 187
03/21/2015 Alonzo McCoy CB Toledo 71 177
03/21/2015 Jaquwan Nelson WDE Miami (FL) 76 230 3 5.60 Videos
03/21/2015 Donte Coleman TE Texas Tech 76 220 3 5.60 Videos
03/20/2015 Connor McGovern C Penn State 77 290 4 5.80 Videos
03/20/2015 Spencer Perry S Florida 75 202 3 5.70 Videos
03/20/2015 Isaiah Johnson WR Florida 75 190 3 5.60 Videos
03/20/2015 Victor Greene ATH Virginia Tech 72 200 2 5.40 Videos
03/20/2015 Phil Benker WR UCF 74 195 Videos
03/19/2015 Jakob Brashear ILB Georgia Tech 73 210 2 5.40
03/18/2015 Zach Sandwisch ILB West Virginia 74 220 3 5.60
03/17/2015 Noah Wezensky PRO Miami (OH) 75 190 2 5.40
03/17/2015 Khalil Tate ATH Arizona 71 208 3 5.70 Videos
03/16/2015 Braxton Webb OT Southern Methodist 77 270 3 5.50
03/16/2015 Dylan Silcox S Rice 74 190 2 5.30
03/16/2015 Jaylen Miller OT Duke 76 280 3 5.50 Videos
03/15/2015 Marcus Simms WR West Virginia 74 180 3 5.50 Videos
03/15/2015 Tyrhee Pratt ATH West Virginia 74 195 2 5.30 Videos
03/15/2015 Riley Lees DUAL Miami (OH) 73 190 2 5.40
03/15/2015 Theo Howard WR Oregon 71 168 4 5.90 Videos
03/15/2015 Kare' Lyles PRO Wisconsin 73 213 3 5.50 Videos
03/14/2015 Paxton Segina WR Rice 76 200
03/14/2015 Eli Peters PRO Illinois 74 213 3 5.50 Videos
03/14/2015 Kentrail Moran RB Illinois 69 186 4 5.80 Videos
03/14/2015 Chauncey Gardner CB Florida 71 190 4 5.90 Videos
03/14/2015 JaQuan Bailey WDE Florida 75 235 3 5.50 Videos
03/13/2015 Griffin Palmer TE Miami (OH) 78 215 Videos
03/13/2015 Rashad Smith S Florida Atlantic 73 179 4.60 2 5.40
03/13/2015 Taylor Rapp S Washington 71 197 3 5.60 Videos
03/13/2015 Thomas Barber ILB Minnesota 73 225 Videos
03/13/2015 Madre Harper CB Oklahoma State 75 170 4.55 3 5.50 Videos
03/12/2015 Carter Coughlin OLB Minnesota 76 205 4.55 3 5.70 Videos
03/12/2015 Cameron Lewis ATH LSU 73 195 4 5.80 Videos
03/12/2015 Hunter Broersma WR Western Michigan 73 178
03/11/2015 Tom Kowalkoski OG Western Michigan 76 288
03/11/2015 Baveon Johnson OG Florida State 75 327 4 5.90 Videos
03/10/2015 Derek Dorsey DT Louisville 76 263 3 5.50 Videos
03/10/2015 Joshua Uche WDE Miami (FL) 73 217 3 5.50 Videos
03/10/2015 Adrian Hardy DUAL Oklahoma 75 185 3 5.60 Videos
03/09/2015 Jamal Couch OLB Florida State 76 215 3 5.60
03/09/2015 Austin Capps DT Arkansas 76 306 3 5.70 Videos
03/07/2015 Rodjay Burns ATH Louisville 74 180 3 5.50 Videos
03/07/2015 David Marshall DT Auburn 75 255 3 5.70 Videos
03/07/2015 Justin Holt DT Arizona 73 303 3 5.50 Videos
03/06/2015 Dalton Strunk OT Miami (OH) 78 270
03/06/2015 Johnny Den Bleyker OLB UCLA 72 200 2 5.40
03/05/2015 Reggie Floyd RB Virginia Tech 72 196 3 5.60 Videos
03/05/2015 Raleigh Texada CB Baylor 70 160 3 5.60 Videos
03/04/2015 TJ London DT Louisville 76 320 3 5.60
03/04/2015 Kalakaua Timoteo WR Hawaii 74 205
03/04/2015 Tyree Horton OLB Florida State 73 225 Videos
03/04/2015 Dakota Holtzclaw WR Kentucky 79 217 4.55 Videos
03/03/2015 Kenan Ivy S Baylor 71 185 3 5.60 Videos
03/02/2015 Darion Anderson WR Georgia 73 170 3 5.60 Videos
03/02/2015 Terrell Hall WDE Ohio State 77 251 4 5.80 Videos
03/02/2015 Zarrian Holcombe TE Texas A&M 76 215 3 5.60 Videos
03/01/2015 Lukas McKenzie S Nevada 74 190
03/01/2015 Nick Gregg DT Nevada 72 305 5.28 Videos
02/28/2015 Cam McCormick TE Oregon 77 225 4.80 3 5.60 Videos
02/28/2015 Jaron Caldwell OT UNLV 75 305
02/28/2015 Julio Garcia OG UNLV 75 315 5.40
02/28/2015 Jaylin Bannerman WDE Kentucky 78 215 3 5.60 Videos
02/28/2015 Kendall Coleman SDE Western Michigan 75 230
02/26/2015 Hunter Kampmoyer SDE Arizona State 76 235 3 5.50 Videos
02/26/2015 Emanuel Jackson RB Western Michigan 72 173
02/26/2015 Justin Rigg TE Kentucky 78 235 3 5.50 Videos
02/26/2015 Jovonn Quillen ATH Virginia Tech 74 189 3 5.50 Videos
02/26/2015 Marquel Dismuke S California 74 170 4 5.80 Videos
02/26/2015 Benjamin LeMay APB Charlotte 69 201 4.56 2 Videos
02/25/2015 Matt Allen C Michigan State 75 272 3 5.50 Videos
02/24/2015 Kalebb Perry WR Western Michigan 74 171 3 5.50
02/24/2015 Saivion Smith S LSU 74 185 5 6.10 Videos
02/24/2015 Deion Jackson CB Miami (FL) 73 170 3 5.50
02/24/2015 Bo Peek DT Stanford 75 290 3 5.60 Videos
02/23/2015 Shane Buechele DUAL Texas 74 185 4 5.80 Videos
02/23/2015 Armani Rogers DUAL California 77 200 3 5.50 Videos
02/23/2015 Benny Snell RB Kentucky 72 210 4.51 3 5.50 Videos
02/23/2015 Asim Rose ATH Kentucky 74 190 Videos
02/22/2015 Tyrique McGhee CB Georgia 70 168 3 5.50 Videos
02/22/2015 Mike Caliendo OG Western Michigan 76 275
02/22/2015 Samuel Denmark WR Virginia Tech 72 177 3 5.60 Videos
02/21/2015 Jadarius Byrd CB Oregon State 69 158 4.64 2 5.20 Videos
02/21/2015 Austin Myers OT TCU 77 290 3 5.60 Videos
02/21/2015 Sean Ragan OT Boston College 77 285 2 5.40 Videos
02/21/2015 Scooter Harrington TE Boston College 77 238 3 5.60 Videos